createdAt,value
2022-09-04T00:03:41.847Z,6.60
2022-09-04T00:08:43.328Z,5.78
2022-09-04T00:14:00.050Z,5.88
2022-09-04T00:19:14.150Z,6.60
2022-09-04T00:24:17.820Z,7.63
2022-09-04T00:29:38.112Z,5.15
2022-09-04T00:34:58.314Z,7.85
2022-09-04T00:40:06.152Z,5.63
2022-09-04T00:45:25.792Z,5.85
2022-09-04T00:55:45.611Z,6.68
2022-09-04T01:00:47.834Z,6.93
2022-09-04T01:06:12.676Z,5.93
2022-09-04T01:11:15.106Z,8.10
2022-09-04T01:16:19.689Z,6.60
2022-09-04T01:21:40.064Z,7.50
2022-09-04T01:26:44.604Z,8.65
2022-09-04T01:32:07.915Z,5.65
2022-09-04T01:37:28.555Z,9.07
2022-09-04T01:42:42.269Z,7.00
2022-09-04T01:47:47.091Z,6.88
2022-09-04T01:52:53.081Z,7.68
2022-09-04T01:58:10.241Z,9.70
2022-09-04T02:03:32.869Z,7.05
2022-09-04T02:08:39.277Z,6.95
2022-09-04T02:13:51.548Z,8.93
2022-09-04T02:19:05.073Z,6.60
2022-09-04T02:24:09.517Z,7.97
2022-09-04T02:29:13.997Z,6.60
2022-09-04T02:34:29.535Z,7.35
2022-09-04T02:39:42.345Z,7.10
2022-09-04T02:44:51.974Z,7.00
2022-09-04T02:50:03.397Z,9.32
2022-09-04T02:55:24.001Z,7.72
2022-09-04T03:00:32.147Z,7.47
2022-09-04T03:05:36.810Z,6.93
2022-09-04T03:10:47.292Z,7.72
2022-09-04T03:16:04.205Z,7.47
2022-09-04T03:21:19.372Z,7.85
2022-09-04T03:26:31.799Z,9.23
2022-09-04T03:31:40.020Z,8.77
2022-09-04T03:36:53.001Z,9.35
2022-09-04T03:41:59.906Z,8.38
2022-09-04T03:47:17.112Z,10.05
2022-09-04T03:52:36.326Z,13.35
2022-09-04T03:57:49.356Z,8.88
2022-09-04T04:02:53.634Z,10.02
2022-09-04T04:08:13.583Z,10.27
2022-09-04T04:13:23.943Z,9.65
2022-09-04T04:18:25.721Z,11.00
2022-09-04T04:23:29.341Z,12.23
2022-09-04T04:28:47.976Z,10.35
2022-09-04T04:34:01.557Z,10.35
2022-09-04T04:39:02.986Z,9.93
2022-09-04T04:44:13.053Z,11.10
2022-09-04T04:49:34.247Z,12.15
2022-09-04T04:54:41.459Z,13.23
2022-09-04T05:00:08.406Z,10.77
2022-09-04T05:05:19.039Z,13.23
2022-09-04T05:10:20.685Z,10.70
2022-09-04T05:15:58.069Z,13.40
2022-09-04T05:21:29.266Z,12.20
2022-09-04T05:26:39.830Z,12.20
2022-09-04T05:31:44.306Z,11.90
2022-09-04T05:37:06.060Z,12.07
2022-09-04T05:42:45.406Z,11.07
2022-09-04T05:47:58.613Z,11.52
2022-09-04T05:53:06.265Z,13.00
2022-09-04T05:58:17.627Z,11.65
2022-09-04T06:03:28.355Z,12.40
2022-09-04T06:08:44.659Z,11.55
2022-09-04T06:13:46.126Z,11.75
2022-09-04T06:18:47.521Z,11.02
2022-09-04T06:24:07.777Z,11.88
2022-09-04T06:29:18.489Z,12.30
2022-09-04T06:34:32.210Z,12.13
2022-09-04T06:39:36.914Z,13.20
2022-09-04T06:44:48.150Z,13.50
2022-09-04T06:49:57.057Z,13.10
2022-09-04T06:55:02.908Z,14.13
2022-09-04T07:00:07.233Z,12.30
2022-09-04T07:05:27.685Z,14.23
2022-09-04T07:10:38.589Z,13.23
2022-09-04T07:15:57.299Z,14.70
2022-09-04T07:21:17.633Z,12.65
2022-09-04T07:26:27.342Z,13.57
2022-09-04T07:31:31.995Z,12.40
2022-09-04T07:36:33.816Z,12.45
2022-09-04T07:41:42.622Z,13.20
2022-09-04T07:46:47.020Z,14.80
2022-09-04T07:52:01.271Z,13.20
2022-09-04T07:57:12.370Z,11.20
2022-09-04T08:02:32.679Z,12.40
2022-09-04T08:07:34.302Z,12.65
2022-09-04T08:12:56.378Z,12.13
2022-09-04T08:18:16.541Z,16.58
2022-09-04T08:23:37.045Z,13.77
2022-09-04T08:28:41.870Z,14.52
2022-09-04T08:33:54.714Z,14.52
2022-09-04T08:39:09.496Z,12.23
2022-09-04T08:44:10.917Z,15.40
2022-09-04T08:49:24.514Z,13.40
2022-09-04T08:54:59.200Z,12.75
2022-09-04T09:00:11.476Z,12.50
2022-09-04T09:05:42.904Z,15.52
2022-09-04T09:11:11.508Z,13.02
2022-09-04T09:16:21.832Z,12.32
2022-09-04T09:21:49.465Z,13.25
2022-09-04T09:27:19.669Z,15.35
2022-09-04T09:32:44.043Z,12.60
2022-09-04T09:38:05.121Z,12.73
2022-09-04T09:43:21.492Z,12.48
2022-09-04T09:48:32.153Z,11.25
2022-09-04T09:53:50.063Z,11.55
2022-09-04T09:59:03.733Z,9.73
2022-09-04T10:04:23.988Z,11.38
2022-09-04T10:09:44.237Z,10.80
2022-09-04T10:14:51.918Z,8.95
2022-09-04T10:19:59.448Z,10.88
2022-09-04T10:25:35.216Z,11.77
2022-09-04T10:30:42.582Z,9.90
2022-09-04T10:35:58.431Z,10.48
2022-09-04T10:40:59.860Z,11.05
2022-09-04T10:46:22.915Z,11.88
2022-09-04T10:51:27.647Z,11.00
2022-09-04T10:56:34.519Z,11.23
2022-09-04T11:01:50.965Z,10.10
2022-09-04T11:06:53.085Z,8.93
2022-09-04T11:12:20.987Z,10.25
2022-09-04T11:17:41.199Z,10.07
2022-09-04T11:22:48.787Z,11.85
2022-09-04T11:28:02.746Z,11.85
2022-09-04T11:33:23.194Z,10.60
2022-09-04T11:38:28.475Z,9.38
2022-09-04T11:43:39.372Z,9.35
2022-09-04T11:49:03.414Z,10.55
2022-09-04T11:54:04.913Z,10.10
2022-09-04T11:59:31.766Z,7.80
2022-09-04T12:04:43.574Z,9.30
2022-09-04T12:09:51.590Z,10.68
2022-09-04T12:15:11.971Z,9.90
2022-09-04T12:20:32.319Z,9.40
2022-09-04T12:25:33.753Z,9.07
2022-09-04T12:30:38.139Z,9.10
2022-09-04T12:35:43.182Z,10.98
2022-09-04T12:40:50.556Z,10.98
2022-09-04T12:45:58.023Z,8.40
2022-09-04T12:51:11.827Z,9.82
2022-09-04T12:56:28.312Z,9.45
2022-09-04T13:01:32.720Z,8.63
2022-09-04T13:06:40.413Z,7.82
2022-09-04T13:12:06.464Z,10.57
2022-09-04T13:17:28.720Z,9.32
2022-09-04T13:22:39.540Z,9.20
2022-09-04T13:27:53.119Z,10.80
2022-09-04T13:33:07.118Z,9.93
2022-09-04T13:38:17.485Z,8.60
2022-09-04T13:43:21.975Z,9.30
2022-09-04T13:48:42.198Z,8.55
2022-09-04T13:53:56.734Z,8.30
2022-09-04T13:59:05.150Z,9.20
2022-09-04T14:04:11.435Z,9.98
2022-09-04T14:09:13.685Z,8.65
2022-09-04T14:14:35.210Z,8.00
2022-09-04T14:20:00.006Z,8.32
2022-09-04T14:25:06.783Z,8.18
2022-09-04T14:30:18.040Z,9.23
2022-09-04T14:35:42.752Z,8.90
2022-09-04T14:41:05.804Z,9.73
2022-09-04T14:46:16.295Z,11.13
2022-09-04T14:51:31.353Z,9.55
2022-09-04T14:56:45.872Z,13.55
2022-09-04T15:02:00.118Z,11.05
2022-09-04T15:07:16.918Z,9.48
2022-09-04T15:12:33.571Z,9.02
2022-09-04T15:17:39.528Z,9.98
2022-09-04T15:22:50.234Z,9.60
2022-09-04T15:27:59.939Z,8.73
2022-09-04T15:33:06.512Z,9.43
2022-09-04T15:38:07.954Z,8.75
2022-09-04T15:43:18.419Z,8.65
2022-09-04T15:48:22.938Z,9.77
2022-09-04T15:53:30.085Z,8.65
2022-09-04T15:58:40.513Z,8.57
2022-09-04T16:03:51.917Z,8.75
2022-09-04T16:09:07.615Z,10.38
2022-09-04T16:14:16.710Z,8.27
2022-09-04T16:19:36.463Z,8.43
2022-09-04T16:24:46.405Z,8.35
2022-09-04T16:29:51.118Z,8.95
2022-09-04T16:34:59.217Z,9.48
2022-09-04T16:40:12.410Z,7.72
2022-09-04T16:45:17.100Z,8.45
2022-09-04T16:50:35.778Z,10.60
2022-09-04T16:55:44.607Z,7.90
2022-09-04T17:00:58.390Z,9.25
2022-09-04T17:06:28.605Z,10.70
2022-09-04T17:11:36.438Z,8.43
2022-09-04T17:16:58.268Z,8.67
2022-09-04T17:28:56.116Z,9.07
2022-09-04T17:29:16.026Z,10.73
2022-09-04T17:39:15.571Z,8.43
2022-09-04T17:41:34.400Z,9.40
2022-09-04T17:45:03.027Z,8.90
2022-09-04T17:50:11.125Z,9.40
2022-09-04T17:55:13.446Z,8.57
2022-09-04T18:00:20.659Z,9.90
2022-09-04T18:05:24.369Z,10.20
2022-09-04T18:10:44.608Z,8.73
2022-09-04T18:15:57.348Z,10.25
2022-09-04T18:21:17.619Z,8.70
2022-09-04T18:26:19.018Z,9.20
2022-09-04T18:37:06.362Z,9.02
2022-09-04T18:37:20.116Z,8.40
2022-09-04T18:50:21.585Z,9.80
2022-09-04T18:50:43.483Z,8.82
2022-09-04T18:53:24.968Z,9.15
2022-09-04T18:58:29.205Z,9.57
2022-09-04T19:03:33.683Z,9.90
2022-09-04T19:08:37.943Z,10.20
2022-09-04T19:13:52.089Z,10.68
2022-09-04T19:19:17.214Z,10.07
2022-09-04T19:24:24.992Z,10.75
2022-09-04T19:29:38.886Z,9.63
2022-09-04T19:34:45.244Z,9.50
2022-09-04T19:46:00.500Z,8.73
2022-09-04T19:46:18.621Z,10.43
2022-09-04T19:53:19.337Z,10.55
2022-09-04T19:56:12.052Z,10.60
2022-09-04T20:01:18.797Z,11.85
2022-09-04T20:06:30.305Z,9.43
2022-09-04T20:11:39.162Z,9.68
2022-09-04T20:16:48.475Z,9.52
2022-09-04T20:22:25.785Z,11.40
2022-09-04T20:27:47.889Z,11.15
2022-09-04T20:32:58.041Z,10.52
2022-09-04T20:38:23.029Z,9.55
2022-09-04T20:43:36.294Z,9.15
2022-09-04T20:52:58.852Z,9.13
2022-09-04T20:54:17.270Z,9.20
2022-09-04T21:03:07.291Z,9.80
2022-09-04T21:05:54.218Z,10.15
2022-09-04T21:11:14.712Z,9.63
2022-09-04T21:16:35.405Z,8.98
2022-09-04T21:21:49.169Z,8.82
2022-09-04T21:26:53.522Z,9.05
2022-09-04T21:32:05.662Z,8.90
2022-09-04T21:37:25.951Z,9.25
2022-09-04T21:42:39.603Z,10.00
2022-09-04T21:47:59.919Z,9.73
2022-09-04T21:53:17.208Z,9.25
2022-09-04T22:02:30.011Z,9.75
2022-09-04T22:03:55.218Z,9.27
2022-09-04T22:13:27.177Z,10.40
2022-09-04T22:14:37.192Z,9.68
2022-09-04T22:19:47.667Z,9.52
2022-09-04T22:24:51.853Z,10.13
2022-09-04T22:30:07.703Z,10.35
2022-09-04T22:35:35.716Z,11.15
2022-09-04T22:40:39.945Z,10.40
2022-09-04T22:46:16.355Z,12.63
2022-09-04T22:51:27.420Z,9.32
2022-09-04T22:56:40.116Z,11.77
2022-09-04T23:01:41.594Z,12.05
2022-09-04T23:13:01.348Z,11.40
2022-09-04T23:20:30.309Z,9.48
2022-09-04T23:26:42.066Z,10.10
2022-09-04T23:29:06.567Z,9.65
2022-09-04T23:34:14.244Z,11.83
2022-09-04T23:39:34.144Z,9.93
2022-09-04T23:44:35.605Z,11.40
2022-09-04T23:49:55.891Z,10.63
2022-09-04T23:55:03.424Z,9.65
